AirNav   Air Wisconsin pilot careers
 
 840 users online  

8NJ7 Pio Costa Heliport
Pequannock, New Jersey, USA

GOING TO PEQUANNOCK?


FAA INFORMATION EFFECTIVE 23 MAY 2019

Location

FAA Identifier: 8NJ7
Lat/Long: 40-56-35.3400N / 074-17-26.5700W
40-56.589000N / 074-17.442833W
40.9431500 / -74.2907139
(estimated)
Elevation: 200 ft. / 61 m (estimated)
Variation: 13W (1995)
From city: 3 miles S of PEQUANNOCK, NJ
Time zone: UTC -4 (UTC -5 during Standard Time)
Zip code: 07440

Heliport Operations

Heliport use: Private use. Permission required prior to landing
Activation date: 08/1997
Control tower: no
ARTCC: NEW YORK CENTER
FSS: MILLVILLE FLIGHT SERVICE STATION
Attendance: UNATNDD
Wind indicator: yes
Segmented circle: no

Heliport Communications

WX ASOS at CDW (4 nm S): 135.5 (973-575-4417)
WX AWOS-3 at MMU (10 nm SW): PHONE 973-290-0135
WX ASOS at TEB (12 nm SE): 132.025 (201-393-0855)
WX ASOS at EWR (16 nm S): PHONE 973-621-2892
WX AWOS-3PT at JRB (19 nm SE): 128.175 (212-425-1534)
WX AWOS-3 at LDJ (20 nm S): 124.025 (908-862-7383)

Nearby radio navigation aids

VOR radial/distance  VOR name  Freq  Var
TEBr310/11.8TETERBORO VOR/DME108.4011W
SAXr135/13.5SPARTA VORTAC115.7011W
LGAr309/21.4LA GUARDIA VOR/DME113.1012W
BWZr081/25.6BROADWAY VOR/DME114.2011W
STWr108/26.4STILLWATER VOR/DME109.6011W
CRIr329/26.8CANARSIE VOR/DME112.3011W
SBJr053/29.8SOLBERG VOR/DME112.9010W
JFKr320/30.1KENNEDY VOR/DME115.9012W
HUOr165/31.1HUGUENOT VOR/DME116.1011W
CMKr250/37.9CARMEL VOR/DME116.6012W
COLr002/38.4COLTS NECK VOR/DME115.4011W

 
NDB name  Hdg/Dist  Freq  Var  ID
TORBY331/11.021412WTE - .
CHATHAM040/13.725413WCAT -.-. .- -
STANWYCK210/36.826112WSKU ... -.- ..-

Heliport Services

Runway Information

Helipad H1

Dimensions: 20 x 20 ft. / 6 x 6 m
Surface: turf
Traffic pattern: leftleft

Heliport Ownership and Management from official FAA records

Ownership: Privately-owned
Owner: ANTHONY PIO COSTA
1 IRVING ST
PEQUANNOCK, NJ 07082
Phone 201-334-7675
Manager: JOANNE DE NICOLA
67 HOPE CROSSING RD
BELVIDERE, NJ 07823
Phone 908-475-8767

Additional Remarks

FOR CD CTC NEW YORK APCH AT 800-645-3206.

Instrument Procedures

There are no published instrument procedures at 8NJ7.

Some nearby airports with instrument procedures:

N07 - Lincoln Park Airport (1 nm W)
KCDW - Essex County Airport (4 nm S)
KMMU - Morristown Municipal Airport (10 nm SW)
4N1 - Greenwood Lake Airport (11 nm N)
KTEB - Teterboro Airport (12 nm SE)
KEWR - Newark Liberty International Airport (16 nm S)
KJRA - West 30th St Heliport (17 nm SE)
6N5 - East 34th Street Heliport (19 nm SE)
KJRB - Downtown Manhattan/Wall Street Heliport (19 nm SE)
KLDJ - Linden Airport (20 nm S)
 
Loc | Ops | Rwys | IFR | FBO | Links
Com | Nav | Svcs | Stats | Notes
Area around 8NJ7 (Pio Costa Heliport)
 
Road maps at: MapQuest Bing Google
 
Aerial photo
No photo
 
Sectional chart

 
Airport distance calculator
Flying to Pio Costa Heliport? Find the distance to fly.

From to 8NJ7

Sunrise and sunset
Times for 22-May-2019
 Local
(UTC-4)
 Zulu
(UTC)
Morning civil twilight05:0309:03
Sunrise05:3409:34
Sunset20:1300:13
Evening civil twilight20:4500:45

Current date and time
Zulu (UTC)  23-May-2019 02:15:54
Local (UTC-4)  22-May-2019 22:15:54
 
METAR
KCDW 
4nm S 
230153Z 00000KT 10SM CLR 19/07 A3023 RMK AO2 SLP240 T01940072
KMMU 
11nm SW 
230145Z 00000KT 10SM SCT250 15/12 A3022
KTEB 
12nm SE 
230151Z 17006KT 10SM CLR 20/07 A3021 RMK AO2 SLP229 T02000067
KEWR 
17nm S 
230151Z 19009KT 10SM FEW100 SCT150 BKN210 BKN260 19/06 A3022 RMK AO2 SLP232 T01940056
KNYC 
18nm SE 
230151Z AUTO VRB03KT 10SM CLR 19/06 A3025 RMK AO2 SLP233 T01940056 $
KJRB 
19nm SE 
230156Z AUTO 25004KT 10SM CLR 19/08 A3024 RMK AO2 SLP239 T01890078
KLDJ 
20nm S 
230155Z AUTO 00000KT 10SM CLR 19/05 A3023 RMK AO2 T01940046
TAF
KTEB 
12nm SE 
222136Z 2222/2324 VRB04KT P6SM SCT200 FM222300 18005KT P6SM SCT200 FM230600 VRB04KT P6SM SCT050 BKN100 PROB30 2308/2312 4SM -SHRA BKN050 FM231300 21010KT P6SM SCT040 BKN090 FM232000 21012G19KT P6SM BKN040 BKN080 PROB30 2322/2324 3SM -TSRA OVC035CB
KEWR 
17nm S 
222136Z 2222/2324 16007KT P6SM SCT200 FM230100 19006KT P6SM SCT150 FM230600 20006KT P6SM SCT050 BKN100 PROB30 2308/2312 4SM -SHRA BKN040 FM231300 21010KT P6SM SCT040 BKN090 FM232000 22012G20KT P6SM BKN040 BKN090 PROB30 2322/2324 3SM -TSRA OVC035CB
NOTAMs
Click for the latest NOTAMs
NOTAMs are issued by the DoD/FAA and will open in a separate window not controlled by AirNav.

 

 
 

Would you like to see your business listed on this page?

 If your business provides an interesting product or service to pilots, flight crews, aircraft, or users of the Pio Costa Heliport, you should consider listing it here.  To start the listing process, click on the button below
 
Add a business
 

Other Pages about Pio Costa Heliport

Update a link
 
Copyright © AirNav, LLC. All rights reserved. Privacy Policy  Contact